Time;durP1;ratioP1;P1;durP2;ratioP2;P2;SDS_P1;SDS_P2;PMS_P1;PMS_P2;Temp;Humidity;BMP_temperature;BMP_pressure;BME280_temperature;BME280_humidity;BME280_pressure;Samples;Min_cycle;Max_cycle;Signal;HPM_P1;HPM_P2
2021/12/28 00:00:17;;;;;;;96.10;42.87;;;;;;;;;;5048549;28;20041;-80
2021/12/28 00:02:48;;;;;;;93.13;42.87;;;;;;;;;;5048383;28;20025;-81
2021/12/28 00:05:15;;;;;;;101.77;46.67;;;;;;;;;;5020530;28;20408;-82
2021/12/28 00:07:41;;;;;;;98.17;44.37;;;;;;;;;;5032251;28;20044;-81
2021/12/28 00:10:09;;;;;;;97.93;45.00;;;;;;;;;;5033837;28;20061;-80
2021/12/28 00:12:37;;;;;;;105.13;48.17;;;;;;;;;;5034439;28;20064;-81
2021/12/28 00:15:19;;;;;;;108.77;48.23;;;;;;;;;;5033818;28;20025;-81
2021/12/28 00:18:04;;;;;;;104.37;46.50;;;;;;;;;;5034533;28;20049;-81
2021/12/28 00:20:40;;;;;;;119.63;50.57;;;;;;;;;;5012094;28;20041;-80
2021/12/28 00:23:13;;;;;;;106.03;48.67;;;;;;;;;;5031973;28;20035;-81
2021/12/28 00:25:40;;;;;;;108.97;51.87;;;;;;;;;;5034540;28;20480;-82
2021/12/28 00:28:06;;;;;;;114.50;51.83;;;;;;;;;;5034650;28;20029;-81
2021/12/28 00:30:32;;;;;;;119.30;49.97;;;;;;;;;;5034360;28;20116;-79
2021/12/28 00:32:59;;;;;;;121.03;52.93;;;;;;;;;;5016540;28;20029;-79
2021/12/28 00:35:31;;;;;;;120.60;52.83;;;;;;;;;;5032813;28;20029;-81
2021/12/28 00:37:58;;;;;;;117.00;50.50;;;;;;;;;;5005149;28;20029;-81
2021/12/28 00:40:24;;;;;;;118.93;52.10;;;;;;;;;;5034066;28;20036;-81
2021/12/28 00:42:50;;;;;;;121.40;52.63;;;;;;;;;;5033840;28;20033;-82
2021/12/28 00:45:17;;;;;;;123.87;52.73;;;;;;;;;;5014702;28;20037;-81
2021/12/28 00:47:43;;;;;;;123.30;52.13;;;;;;;;;;5031491;28;20026;-82
2021/12/28 00:50:11;;;;;;;119.83;52.03;;;;;;;;;;5032808;28;20036;-81
2021/12/28 00:52:38;;;;;;;108.67;48.90;;;;;;;;;;5032751;28;20040;-82
2021/12/28 00:55:05;;;;;;;111.73;46.70;;;;;;;;;;5026557;28;20033;-79
2021/12/28 00:57:31;;;;;;;110.97;48.13;;;;;;;;;;5032768;28;20039;-81
2021/12/28 00:59:57;;;;;;;103.67;46.33;;;;;;;;;;5034300;28;20111;-81
2021/12/28 01:02:25;;;;;;;110.17;48.70;;;;;;;;;;5033149;28;20477;-81
2021/12/28 01:04:51;;;;;;;108.60;47.70;;;;;;;;;;5020505;28;20037;-81
2021/12/28 01:07:18;;;;;;;112.73;48.07;;;;;;;;;;5035074;28;20030;-82
2021/12/28 01:09:45;;;;;;;113.93;47.07;;;;;;;;;;5015317;28;20029;-82
2021/12/28 01:12:11;;;;;;;112.57;48.20;;;;;;;;;;5032573;28;20076;-81
2021/12/28 01:14:38;;;;;;;101.53;46.80;;;;;;;;;;5032364;28;20091;-82
2021/12/28 01:17:08;;;;;;;112.53;46.80;;;;;;;;;;5032540;28;21598;-81
2021/12/28 01:19:34;;;;;;;108.67;49.50;;;;;;;;;;5031143;28;20112;-81
2021/12/28 01:22:01;;;;;;;117.43;50.30;;;;;;;;;;5014182;28;20082;-82
2021/12/28 01:24:28;;;;;;;111.50;50.03;;;;;;;;;;5014697;28;20021;-81
2021/12/28 01:26:55;;;;;;;111.03;49.20;;;;;;;;;;5014724;28;20048;-82
2021/12/28 01:29:21;;;;;;;103.13;48.87;;;;;;;;;;5031661;28;20116;-82
2021/12/28 01:31:47;;;;;;;117.20;51.53;;;;;;;;;;5033898;28;20037;-81
2021/12/28 01:34:14;;;;;;;127.87;57.60;;;;;;;;;;5031745;28;20033;-82
2021/12/28 01:36:40;;;;;;;141.17;58.10;;;;;;;;;;5030893;28;20464;-81
2021/12/28 01:39:08;;;;;;;135.23;59.40;;;;;;;;;;5030322;28;20037;-81
2021/12/28 01:41:34;;;;;;;143.77;61.47;;;;;;;;;;5030854;28;20528;-82
2021/12/28 01:44:04;;;;;;;125.43;58.83;;;;;;;;;;5032707;28;20383;-82
2021/12/28 01:46:31;;;;;;;122.97;58.03;;;;;;;;;;5014799;28;20030;-80
2021/12/28 01:48:57;;;;;;;124.37;57.50;;;;;;;;;;5032533;28;20105;-81
2021/12/28 01:51:24;;;;;;;129.83;58.00;;;;;;;;;;5031574;28;20021;-82
2021/12/28 01:53:53;;;;;;;131.93;60.00;;;;;;;;;;5031658;28;20427;-82
2021/12/28 01:56:21;;;;;;;131.10;58.43;;;;;;;;;;5029640;28;20047;-81
2021/12/28 01:58:48;;;;;;;128.97;56.80;;;;;;;;;;5032972;28;20033;-85
2021/12/28 02:01:14;;;;;;;128.07;57.97;;;;;;;;;;5025944;28;20460;-81
2021/12/28 02:03:41;;;;;;;125.73;55.70;;;;;;;;;;5025914;28;20468;-83
2021/12/28 02:06:08;;;;;;;127.03;56.20;;;;;;;;;;5022257;28;20029;-81
2021/12/28 02:08:35;;;;;;;133.70;59.53;;;;;;;;;;5005872;28;20065;-82
2021/12/28 02:11:01;;;;;;;129.07;57.17;;;;;;;;;;5006000;28;20044;-81
2021/12/28 02:13:28;;;;;;;126.17;58.33;;;;;;;;;;5032266;28;20029;-81
2021/12/28 02:15:56;;;;;;;134.43;59.13;;;;;;;;;;5028803;28;20029;-82
2021/12/28 02:18:23;;;;;;;135.03;58.43;;;;;;;;;;5014052;28;20104;-82
2021/12/28 02:20:51;;;;;;;126.17;57.03;;;;;;;;;;5024589;28;20030;-82
2021/12/28 02:23:17;;;;;;;131.40;57.00;;;;;;;;;;5002165;28;20461;-82
2021/12/28 02:25:45;;;;;;;124.07;55.57;;;;;;;;;;5022470;28;20041;-83
2021/12/28 02:28:11;;;;;;;121.10;55.63;;;;;;;;;;5021596;28;20033;-83
2021/12/28 02:30:39;;;;;;;128.20;59.77;;;;;;;;;;5022151;28;20029;-83
2021/12/28 02:33:06;;;;;;;127.40;55.90;;;;;;;;;;5009650;28;20128;-83
2021/12/28 02:35:32;;;;;;;124.83;56.43;;;;;;;;;;5020141;28;20037;-81
2021/12/28 02:37:59;;;;;;;144.00;61.63;;;;;;;;;;5029456;28;21318;-82
2021/12/28 02:40:27;;;;;;;139.03;60.47;;;;;;;;;;5031086;28;20104;-81
2021/12/28 02:42:55;;;;;;;135.57;60.50;;;;;;;;;;5031287;28;20109;-82
2021/12/28 02:45:26;;;;;;;131.47;60.03;;;;;;;;;;5031822;28;20555;-82
2021/12/28 02:47:53;;;;;;;144.43;58.53;;;;;;;;;;5026644;28;20491;-81
2021/12/28 02:50:23;;;;;;;128.97;57.43;;;;;;;;;;5011496;28;20033;-84
2021/12/28 02:52:50;;;;;;;136.37;58.60;;;;;;;;;;5006728;28;20037;-82
2021/12/28 02:55:19;;;;;;;121.90;53.80;;;;;;;;;;5028506;28;20466;-82
2021/12/28 02:57:50;;;;;;;124.10;55.37;;;;;;;;;;5011509;28;20568;-82
2021/12/28 03:00:29;;;;;;;118.07;52.20;;;;;;;;;;5023655;28;20128;-83
2021/12/28 03:02:56;;;;;;;116.87;52.63;;;;;;;;;;5003786;28;20493;-81
2021/12/28 03:05:22;;;;;;;119.20;51.90;;;;;;;;;;5029108;28;20029;-81
2021/12/28 03:07:49;;;;;;;112.60;53.00;;;;;;;;;;5028712;28;20037;-82
2021/12/28 03:10:15;;;;;;;110.83;51.40;;;;;;;;;;5029828;28;20546;-82
2021/12/28 03:12:42;;;;;;;110.77;48.97;;;;;;;;;;5011117;28;20039;-82
2021/12/28 03:15:08;;;;;;;114.47;48.43;;;;;;;;;;5027461;28;20453;-84
2021/12/28 03:17:34;;;;;;;95.87;44.53;;;;;;;;;;5023970;28;20090;-81
2021/12/28 03:20:01;;;;;;;95.10;42.60;;;;;;;;;;5029466;28;20095;-81
2021/12/28 03:22:27;;;;;;;95.63;46.53;;;;;;;;;;5029117;28;20022;-82
2021/12/28 03:24:53;;;;;;;101.27;47.73;;;;;;;;;;5028681;28;20026;-83
2021/12/28 03:27:19;;;;;;;100.33;45.23;;;;;;;;;;5027888;28;20538;-83
2021/12/28 03:29:46;;;;;;;95.07;44.77;;;;;;;;;;5027430;28;20354;-81
2021/12/28 03:32:12;;;;;;;95.50;46.67;;;;;;;;;;5030840;28;20038;-80
2021/12/28 03:34:38;;;;;;;110.00;48.47;;;;;;;;;;5027309;28;20452;-82
2021/12/28 03:37:05;;;;;;;100.23;48.87;;;;;;;;;;5027265;28;20080;-82
2021/12/28 03:39:31;;;;;;;114.37;49.60;;;;;;;;;;5029976;28;20026;-83
2021/12/28 03:41:57;;;;;;;99.53;47.23;;;;;;;;;;5026599;28;20076;-81
2021/12/28 03:44:23;;;;;;;113.97;56.03;;;;;;;;;;5023732;28;20403;-81
2021/12/28 03:46:50;;;;;;;120.37;57.20;;;;;;;;;;5008591;28;20038;-81
2021/12/28 03:49:16;;;;;;;132.17;65.43;;;;;;;;;;5026192;28;20112;-81
2021/12/28 03:51:42;;;;;;;133.77;68.70;;;;;;;;;;5025863;28;20034;-83
2021/12/28 03:54:15;;;;;;;141.50;69.27;;;;;;;;;;5024964;28;20079;-82
2021/12/28 03:56:41;;;;;;;143.77;71.13;;;;;;;;;;5022415;28;20029;-81
2021/12/28 03:59:07;;;;;;;171.17;76.13;;;;;;;;;;5027076;28;20057;-83
2021/12/28 04:01:34;;;;;;;149.80;79.33;;;;;;;;;;5008933;28;20028;-84
2021/12/28 04:04:00;;;;;;;159.40;79.60;;;;;;;;;;5027788;28;20033;-83
2021/12/28 04:06:28;;;;;;;164.20;79.30;;;;;;;;;;5011054;28;20029;-83
2021/12/28 04:08:57;;;;;;;165.90;82.40;;;;;;;;;;5027546;28;20044;-82
2021/12/28 04:13:50;;;;;;;170.17;86.97;;;;;;;;;;5028017;28;20492;-83
2021/12/28 04:16:17;;;;;;;170.50;85.27;;;;;;;;;;5006770;28;20033;-83
2021/12/28 04:18:43;;;;;;;159.33;88.40;;;;;;;;;;4986889;28;20388;-82
2021/12/28 04:21:10;;;;;;;129.40;71.97;;;;;;;;;;5005294;28;20392;-82
2021/12/28 04:23:37;;;;;;;116.63;61.97;;;;;;;;;;5005159;28;20461;-83
2021/12/28 04:26:04;;;;;;;132.57;67.10;;;;;;;;;;4993791;28;21026;-82
2021/12/28 04:28:31;;;;;;;129.83;70.20;;;;;;;;;;5008856;28;20381;-83
2021/12/28 04:30:57;;;;;;;154.83;73.47;;;;;;;;;;5003739;28;20040;-83
2021/12/28 04:33:24;;;;;;;140.40;63.63;;;;;;;;;;4988389;28;20034;-83
2021/12/28 04:35:50;;;;;;;135.50;64.97;;;;;;;;;;4989342;28;20172;-82
2021/12/28 04:38:17;;;;;;;129.13;58.13;;;;;;;;;;5004789;28;20057;-83
2021/12/28 04:40:43;;;;;;;110.43;54.83;;;;;;;;;;5004478;28;20029;-81
2021/12/28 04:43:11;;;;;;;98.83;50.33;;;;;;;;;;5007061;28;20754;-83
2021/12/28 04:45:38;;;;;;;110.17;55.63;;;;;;;;;;5004935;28;20084;-82
2021/12/28 04:48:06;;;;;;;119.03;57.57;;;;;;;;;;5000656;28;20100;-84
2021/12/28 04:50:38;;;;;;;120.03;59.07;;;;;;;;;;5002158;28;20038;-84
2021/12/28 04:53:10;;;;;;;133.40;64.90;;;;;;;;;;5002657;28;20081;-83
2021/12/28 04:55:38;;;;;;;145.33;67.47;;;;;;;;;;5006996;28;20746;-82
2021/12/28 04:58:04;;;;;;;137.70;69.77;;;;;;;;;;5005269;28;20026;-85
2021/12/28 05:00:31;;;;;;;126.07;63.00;;;;;;;;;;5005074;28;20030;-84
2021/12/28 05:02:58;;;;;;;131.30;65.47;;;;;;;;;;5002998;28;20100;-85
2021/12/28 05:05:24;;;;;;;126.83;60.70;;;;;;;;;;5005990;28;20026;-84
2021/12/28 05:07:52;;;;;;;122.00;56.07;;;;;;;;;;4999899;28;20080;-83
2021/12/28 05:10:18;;;;;;;100.17;49.23;;;;;;;;;;4990877;28;20565;-85
2021/12/28 05:12:44;;;;;;;105.83;51.00;;;;;;;;;;5009055;28;20026;-84
2021/12/28 05:15:11;;;;;;;100.57;47.90;;;;;;;;;;5014413;28;20343;-86
2021/12/28 05:17:37;;;;;;;108.80;51.70;;;;;;;;;;5010947;28;20057;-82
2021/12/28 05:20:05;;;;;;;96.83;46.03;;;;;;;;;;5023982;28;20045;-84
2021/12/28 05:22:31;;;;;;;100.63;48.33;;;;;;;;;;5019528;28;20035;-85
2021/12/28 05:24:58;;;;;;;91.73;43.80;;;;;;;;;;5024919;28;20053;-84
2021/12/28 05:27:24;;;;;;;94.53;44.83;;;;;;;;;;5031640;28;20095;-82
2021/12/28 05:29:50;;;;;;;95.20;44.60;;;;;;;;;;5034712;28;20213;-82
2021/12/28 05:32:17;;;;;;;93.20;43.90;;;;;;;;;;5034061;28;20035;-83
2021/12/28 05:34:43;;;;;;;87.23;41.07;;;;;;;;;;5020845;28;20465;-83
2021/12/28 05:37:09;;;;;;;93.50;44.70;;;;;;;;;;5030155;28;20069;-84
2021/12/28 05:39:36;;;;;;;93.67;45.83;;;;;;;;;;5011601;28;20021;-83
2021/12/28 05:42:03;;;;;;;99.20;45.87;;;;;;;;;;5035772;28;20040;-84
2021/12/28 05:44:32;;;;;;;99.60;46.33;;;;;;;;;;5034810;28;20061;-83
2021/12/28 05:46:58;;;;;;;106.80;50.53;;;;;;;;;;5027431;28;20037;-84
2021/12/28 05:49:25;;;;;;;115.70;51.87;;;;;;;;;;5034141;28;20029;-85
2021/12/28 05:51:53;;;;;;;128.37;58.03;;;;;;;;;;5011326;28;20184;-84
2021/12/28 05:54:19;;;;;;;122.90;56.43;;;;;;;;;;5022251;28;20465;-84
2021/12/28 05:56:46;;;;;;;119.40;59.33;;;;;;;;;;5026067;28;21304;-82
2021/12/28 05:59:13;;;;;;;116.97;54.90;;;;;;;;;;5009328;28;20071;-84
2021/12/28 06:01:39;;;;;;;121.30;57.87;;;;;;;;;;5012417;28;20476;-84
2021/12/28 06:04:07;;;;;;;117.00;53.47;;;;;;;;;;5004831;28;20036;-83
2021/12/28 06:06:33;;;;;;;114.87;56.43;;;;;;;;;;5005089;28;20030;-84
2021/12/28 06:08:59;;;;;;;112.83;53.47;;;;;;;;;;5021449;28;20112;-82
2021/12/28 06:11:26;;;;;;;108.43;54.00;;;;;;;;;;5017654;28;20149;-86
2021/12/28 06:13:53;;;;;;;113.87;56.43;;;;;;;;;;5008561;28;20041;-83
2021/12/28 06:16:23;;;;;;;117.50;58.53;;;;;;;;;;5024917;28;20033;-85
2021/12/28 06:18:49;;;;;;;115.50;58.80;;;;;;;;;;5027374;28;20057;-84
2021/12/28 06:21:16;;;;;;;111.97;55.97;;;;;;;;;;5030776;28;20026;-84
2021/12/28 06:23:42;;;;;;;114.63;59.00;;;;;;;;;;5008749;28;20037;-83
2021/12/28 06:26:09;;;;;;;115.37;60.50;;;;;;;;;;5028846;28;20044;-83
2021/12/28 06:28:35;;;;;;;128.67;62.03;;;;;;;;;;5028651;28;20068;-84
2021/12/28 06:31:01;;;;;;;125.83;64.30;;;;;;;;;;5006574;28;20041;-82
2021/12/28 06:33:28;;;;;;;116.90;57.30;;;;;;;;;;5010465;28;20033;-82
2021/12/28 06:35:54;;;;;;;121.80;57.83;;;;;;;;;;5028475;28;20038;-84
2021/12/28 06:38:22;;;;;;;127.13;64.17;;;;;;;;;;5029051;28;20089;-84
2021/12/28 06:40:49;;;;;;;116.47;56.20;;;;;;;;;;5010571;28;20068;-85
2021/12/28 06:43:16;;;;;;;111.30;54.43;;;;;;;;;;5028773;28;20048;-83
2021/12/28 06:45:42;;;;;;;117.33;58.67;;;;;;;;;;5023276;28;20040;-86
2021/12/28 06:48:09;;;;;;;117.47;60.13;;;;;;;;;;5009907;28;20397;-83
2021/12/28 06:50:35;;;;;;;123.38;57.50;;;;;;;;;;4989093;28;20037;-82
2021/12/28 06:53:01;;;;;;;121.95;59.30;;;;;;;;;;5027015;28;20431;-86
2021/12/28 06:55:28;;;;;;;125.30;60.13;;;;;;;;;;5031138;28;20056;-82
2021/12/28 06:57:54;;;;;;;121.28;58.60;;;;;;;;;;5032702;28;20033;-83
2021/12/28 07:00:20;;;;;;;136.32;60.75;;;;;;;;;;5031260;28;20197;-82
2021/12/28 07:02:47;;;;;;;117.77;59.30;;;;;;;;;;5028120;28;20121;-85
2021/12/28 07:05:13;;;;;;;129.68;62.55;;;;;;;;;;5030486;28;20041;-84
2021/12/28 07:07:40;;;;;;;154.63;72.33;;;;;;;;;;5011500;28;20675;-85
2021/12/28 07:10:07;;;;;;;144.93;64.93;;;;;;;;;;5027311;28;20120;-84
2021/12/28 07:12:35;;;;;;;134.13;60.95;;;;;;;;;;5015138;28;20034;-84
2021/12/28 07:15:05;;;;;;;138.68;61.35;;;;;;;;;;5030266;28;20029;-85
2021/12/28 07:17:32;;;;;;;129.18;59.72;;;;;;;;;;5033437;28;20038;-85
2021/12/28 07:19:59;;;;;;;121.57;61.17;;;;;;;;;;5030351;28;20485;-84
2021/12/28 07:22:26;;;;;;;125.72;61.75;;;;;;;;;;5030244;28;20026;-84
2021/12/28 07:24:54;;;;;;;139.90;67.72;;;;;;;;;;5007876;28;20033;-84
2021/12/28 07:27:20;;;;;;;142.48;73.47;;;;;;;;;;5032423;28;20051;-83
2021/12/28 07:29:46;;;;;;;139.80;71.68;;;;;;;;;;5011235;28;20025;-85
2021/12/28 07:32:13;;;;;;;143.57;73.25;;;;;;;;;;5025654;28;20033;-83
2021/12/28 07:34:39;;;;;;;144.65;72.10;;;;;;;;;;5027801;28;20131;-84
2021/12/28 07:37:05;;;;;;;142.88;71.00;;;;;;;;;;5023664;28;20430;-82
2021/12/28 07:39:33;;;;;;;137.95;70.75;;;;;;;;;;5027332;28;20021;-83
2021/12/28 07:42:00;;;;;;;137.80;71.38;;;;;;;;;;5028972;28;20026;-84
2021/12/28 07:44:26;;;;;;;134.50;69.53;;;;;;;;;;5030216;28;20025;-84
2021/12/28 07:46:52;;;;;;;131.23;67.40;;;;;;;;;;5025373;28;20033;-86
2021/12/28 07:49:19;;;;;;;131.82;66.72;;;;;;;;;;5005636;28;20041;-85
2021/12/28 07:51:46;;;;;;;132.65;70.40;;;;;;;;;;5029533;28;20033;-85
2021/12/28 07:54:12;;;;;;;131.73;68.72;;;;;;;;;;5000468;28;20057;-82
2021/12/28 07:56:38;;;;;;;139.18;70.75;;;;;;;;;;5027697;28;20034;-86
2021/12/28 07:59:05;;;;;;;134.40;71.70;;;;;;;;;;5007699;28;20030;-83
2021/12/28 08:01:35;;;;;;;134.50;70.28;;;;;;;;;;5008594;28;20075;-84
2021/12/28 08:04:01;;;;;;;133.20;66.82;;;;;;;;;;5026015;28;20146;-82
2021/12/28 08:06:28;;;;;;;136.07;70.65;;;;;;;;;;5012126;28;20041;-85
2021/12/28 08:08:54;;;;;;;124.00;66.00;;;;;;;;;;5027193;28;20976;-86
2021/12/28 08:11:22;;;;;;;132.95;69.45;;;;;;;;;;5004226;28;20044;-86
2021/12/28 08:13:48;;;;;;;129.10;67.88;;;;;;;;;;5021354;28;20032;-84
2021/12/28 08:16:15;;;;;;;125.15;67.22;;;;;;;;;;5018865;28;20037;-84
2021/12/28 08:18:41;;;;;;;127.88;66.93;;;;;;;;;;4965884;28;1698025;-85
2021/12/28 08:21:07;;;;;;;130.98;66.18;;;;;;;;;;5010441;28;20029;-87
2021/12/28 08:23:34;;;;;;;127.78;67.20;;;;;;;;;;5024161;28;20030;-86
2021/12/28 08:26:00;;;;;;;130.02;68.18;;;;;;;;;;5025140;28;20452;-82
2021/12/28 08:28:27;;;;;;;132.63;68.88;;;;;;;;;;5023942;28;20443;-86
2021/12/28 08:30:54;;;;;;;133.90;66.38;;;;;;;;;;5009035;28;20560;-83
2021/12/28 08:33:20;;;;;;;140.50;67.35;;;;;;;;;;5010433;28;20731;-82
2021/12/28 08:35:46;;;;;;;140.20;70.22;;;;;;;;;;5004760;28;20063;-82
2021/12/28 08:38:14;;;;;;;136.50;65.47;;;;;;;;;;5024468;28;20481;-85
2021/12/28 08:40:41;;;;;;;128.13;65.43;;;;;;;;;;5027661;28;20523;-82
2021/12/28 08:43:08;;;;;;;132.82;66.03;;;;;;;;;;5021517;28;20114;-84
2021/12/28 08:45:35;;;;;;;142.05;77.07;;;;;;;;;;5024146;28;20631;-84
2021/12/28 08:48:01;;;;;;;129.35;65.25;;;;;;;;;;5001017;28;20063;-86
2021/12/28 08:50:28;;;;;;;129.48;64.13;;;;;;;;;;5026654;28;20041;-86
2021/12/28 08:52:55;;;;;;;124.85;63.55;;;;;;;;;;5029118;28;20037;-82
2021/12/28 08:55:23;;;;;;;118.88;63.03;;;;;;;;;;5006414;28;20637;-85
2021/12/28 08:57:50;;;;;;;129.63;65.43;;;;;;;;;;5022002;28;20041;-82
2021/12/28 09:00:19;;;;;;;130.90;67.75;;;;;;;;;;5020436;28;20057;-82
2021/12/28 09:02:45;;;;;;;124.60;65.30;;;;;;;;;;5025746;28;20504;-87
2021/12/28 09:05:11;;;;;;;128.43;65.15;;;;;;;;;;5012760;28;20033;-83
2021/12/28 09:07:38;;;;;;;131.25;67.85;;;;;;;;;;5003411;28;20095;-81
2021/12/28 09:10:05;;;;;;;130.93;66.93;;;;;;;;;;5025324;28;20025;-82
2021/12/28 09:12:31;;;;;;;124.97;64.43;;;;;;;;;;5006356;28;20045;-84
2021/12/28 09:14:57;;;;;;;121.03;62.65;;;;;;;;;;5016194;28;20477;-84
2021/12/28 09:17:24;;;;;;;117.20;63.28;;;;;;;;;;5022311;28;20056;-84
2021/12/28 09:19:50;;;;;;;115.68;62.42;;;;;;;;;;5004220;28;20038;-84
2021/12/28 09:22:19;;;;;;;109.45;59.97;;;;;;;;;;5022804;28;20067;-84
2021/12/28 09:24:45;;;;;;;118.45;59.67;;;;;;;;;;5002582;28;20048;-83
2021/12/28 09:27:11;;;;;;;113.60;60.95;;;;;;;;;;5021191;28;20571;-84
2021/12/28 09:29:42;;;;;;;118.85;62.55;;;;;;;;;;5024427;28;20030;-82
2021/12/28 09:32:09;;;;;;;116.18;60.83;;;;;;;;;;5023267;28;20025;-83
2021/12/28 09:34:35;;;;;;;118.90;58.40;;;;;;;;;;5025021;28;20170;-82
2021/12/28 09:37:01;;;;;;;114.32;60.55;;;;;;;;;;5017877;28;20107;-84
2021/12/28 09:39:28;;;;;;;111.18;61.03;;;;;;;;;;5017092;28;20026;-84
2021/12/28 09:41:58;;;;;;;120.03;64.35;;;;;;;;;;5002520;28;20033;-84
2021/12/28 09:44:25;;;;;;;120.60;64.65;;;;;;;;;;5024324;28;20084;-83
2021/12/28 09:46:51;;;;;;;120.35;66.45;;;;;;;;;;5023475;28;20048;-81
2021/12/28 09:49:18;;;;;;;132.43;65.80;;;;;;;;;;5022623;28;20045;-82
2021/12/28 09:51:44;;;;;;;120.53;63.78;;;;;;;;;;5022187;28;20061;-85
2021/12/28 09:54:11;;;;;;;118.60;62.92;;;;;;;;;;5019923;28;20060;-82
2021/12/28 09:56:37;;;;;;;123.07;66.35;;;;;;;;;;5016373;28;21335;-84
2021/12/28 09:59:04;;;;;;;129.90;67.35;;;;;;;;;;5002696;28;20026;-82
2021/12/28 10:01:31;;;;;;;125.30;66.55;;;;;;;;;;5015954;28;20508;-82
2021/12/28 10:03:59;;;;;;;136.52;72.65;;;;;;;;;;5020920;28;20025;-83
2021/12/28 10:06:28;;;;;;;122.32;69.72;;;;;;;;;;5023639;28;20030;-83
2021/12/28 10:09:08;;;;;;;142.52;73.05;;;;;;;;;;5018444;28;20335;-84
2021/12/28 10:11:35;;;;;;;139.50;70.70;;;;;;;;;;5006979;28;20034;-83
2021/12/28 10:14:12;;;;;;;139.27;73.78;;;;;;;;;;5019845;28;20048;-84
2021/12/28 10:16:47;;;;;;;140.50;73.30;;;;;;;;;;5022102;28;20124;-84
2021/12/28 10:19:31;;;;;;;141.38;71.60;;;;;;;;;;5004104;28;20483;-84
2021/12/28 10:21:58;;;;;;;139.15;73.80;;;;;;;;;;5017678;28;20025;-84
2021/12/28 10:24:35;;;;;;;131.23;69.50;;;;;;;;;;5018905;28;20049;-84
2021/12/28 10:27:10;;;;;;;139.00;75.13;;;;;;;;;;5015717;28;20049;-84
2021/12/28 10:29:36;;;;;;;142.68;74.00;;;;;;;;;;5022814;28;20029;-83
2021/12/28 10:32:38;;;;;;;136.55;70.97;;;;;;;;;;5005899;28;20236;-83
2021/12/28 10:35:08;;;;;;;136.57;73.75;;;;;;;;;;4944941;28;20394;-83
2021/12/28 10:37:36;;;;;;;129.63;69.85;;;;;;;;;;5007176;28;20033;-83
2021/12/28 10:40:04;;;;;;;134.77;70.47;;;;;;;;;;5005272;28;20029;-83
2021/12/28 10:42:39;;;;;;;126.82;68.53;;;;;;;;;;5023743;28;20044;-83
2021/12/28 10:45:07;;;;;;;140.63;70.95;;;;;;;;;;5002771;28;20026;-82
2021/12/28 10:47:33;;;;;;;137.10;73.47;;;;;;;;;;5019770;28;20026;-83
2021/12/28 10:50:07;;;;;;;136.48;71.45;;;;;;;;;;5020192;28;20473;-84
2021/12/28 10:52:39;;;;;;;143.65;74.55;;;;;;;;;;5022020;28;20022;-82
2021/12/28 10:55:25;;;;;;;150.02;76.20;;;;;;;;;;5024493;28;20068;-84
2021/12/28 10:57:51;;;;;;;144.00;78.75;;;;;;;;;;5022530;28;20029;-82
2021/12/28 11:00:28;;;;;;;153.32;79.18;;;;;;;;;;5021854;28;20031;-83
2021/12/28 11:03:14;;;;;;;164.05;84.10;;;;;;;;;;5011301;28;20036;-86
2021/12/28 11:05:41;;;;;;;162.43;81.10;;;;;;;;;;5022838;28;20076;-83
2021/12/28 11:08:07;;;;;;;160.70;81.75;;;;;;;;;;5030737;28;20096;-83
2021/12/28 11:10:35;;;;;;;158.73;82.25;;;;;;;;;;5024667;28;20021;-83
2021/12/28 11:13:01;;;;;;;159.77;82.20;;;;;;;;;;5024673;28;20275;-84
2021/12/28 11:15:32;;;;;;;146.50;75.78;;;;;;;;;;5022703;28;20458;-82
2021/12/28 11:17:58;;;;;;;155.15;77.75;;;;;;;;;;5023846;28;20536;-82
2021/12/28 11:20:30;;;;;;;154.75;82.40;;;;;;;;;;5025174;28;20071;-80
2021/12/28 11:23:14;;;;;;;133.27;71.53;;;;;;;;;;5005294;28;20077;-84
2021/12/28 11:25:40;;;;;;;135.05;71.45;;;;;;;;;;5027202;28;20484;-84
2021/12/28 11:28:16;;;;;;;134.70;71.03;;;;;;;;;;5037612;28;20034;-82
2021/12/28 11:30:58;;;;;;;130.95;71.60;;;;;;;;;;5024589;28;20034;-82
2021/12/28 11:33:24;;;;;;;127.55;67.72;;;;;;;;;;5046692;28;20045;-84
2021/12/28 11:35:50;;;;;;;122.82;65.25;;;;;;;;;;5046985;28;20072;-83
2021/12/28 11:38:17;;;;;;;136.27;66.22;;;;;;;;;;5045380;28;20025;-85
2021/12/28 11:40:44;;;;;;;132.70;67.18;;;;;;;;;;5013003;28;20025;-82
2021/12/28 11:43:10;;;;;;;130.05;65.80;;;;;;;;;;5026968;28;20295;-83
2021/12/28 11:45:37;;;;;;;127.97;67.13;;;;;;;;;;5026568;28;20065;-83
2021/12/28 11:48:03;;;;;;;132.18;67.78;;;;;;;;;;5023546;28;20040;-83
2021/12/28 11:50:29;;;;;;;137.50;69.00;;;;;;;;;;5023017;28;20077;-82
2021/12/28 11:52:56;;;;;;;121.07;62.72;;;;;;;;;;5005492;28;20029;-81
2021/12/28 11:55:22;;;;;;;130.40;65.00;;;;;;;;;;5025596;28;20029;-82
2021/12/28 11:57:50;;;;;;;132.25;65.22;;;;;;;;;;5028701;28;20038;-83
2021/12/28 12:00:17;;;;;;;123.97;64.80;;;;;;;;;;5004758;28;20281;-83
2021/12/28 12:02:49;;;;;;;127.25;64.80;;;;;;;;;;5023926;28;20021;-81
2021/12/28 12:05:18;;;;;;;124.70;61.97;;;;;;;;;;5031021;28;20059;-84
2021/12/28 12:07:44;;;;;;;132.82;65.45;;;;;;;;;;5013963;28;20106;-83
2021/12/28 12:10:12;;;;;;;133.35;65.82;;;;;;;;;;5029053;28;20587;-83
2021/12/28 12:12:53;;;;;;;141.30;74.95;;;;;;;;;;5032785;28;20461;-84
2021/12/28 12:15:20;;;;;;;117.82;61.95;;;;;;;;;;5031714;28;20025;-82
2021/12/28 12:17:47;;;;;;;123.03;64.53;;;;;;;;;;5012319;28;20041;-83
2021/12/28 12:20:17;;;;;;;130.90;63.70;;;;;;;;;;5025807;28;20465;-83
2021/12/28 12:22:45;;;;;;;126.97;65.20;;;;;;;;;;4997017;28;20022;-82
2021/12/28 12:25:16;;;;;;;124.13;64.22;;;;;;;;;;5023297;28;20030;-82
2021/12/28 12:27:47;;;;;;;128.52;65.10;;;;;;;;;;5029131;28;20037;-84
2021/12/28 12:30:28;;;;;;;123.60;64.03;;;;;;;;;;5004070;28;20055;-83
2021/12/28 12:32:57;;;;;;;128.02;68.25;;;;;;;;;;5028302;28;20044;-84
2021/12/28 12:35:39;;;;;;;127.50;68.15;;;;;;;;;;5029118;28;20047;-83
2021/12/28 12:38:16;;;;;;;117.88;60.92;;;;;;;;;;5008665;28;20045;-83
2021/12/28 12:40:53;;;;;;;139.60;63.63;;;;;;;;;;5031026;28;20108;-83
2021/12/28 12:43:20;;;;;;;123.72;61.88;;;;;;;;;;5024607;28;20206;-82
2021/12/28 12:45:52;;;;;;;128.63;61.90;;;;;;;;;;5011198;28;20029;-82
2021/12/28 12:48:37;;;;;;;113.73;57.17;;;;;;;;;;5028904;28;20060;-82
2021/12/28 12:51:22;;;;;;;120.72;58.83;;;;;;;;;;5016706;28;20032;-82
2021/12/28 12:53:50;;;;;;;121.22;63.72;;;;;;;;;;5014316;28;20061;-81
2021/12/28 12:56:18;;;;;;;145.88;71.68;;;;;;;;;;5030068;28;20495;-84
2021/12/28 12:58:48;;;;;;;174.52;89.80;;;;;;;;;;5006711;28;20030;-82
2021/12/28 13:01:20;;;;;;;183.65;98.35;;;;;;;;;;5025545;28;20029;-82
2021/12/28 13:03:46;;;;;;;192.17;103.07;;;;;;;;;;5026366;28;20025;-82
2021/12/28 13:06:12;;;;;;;209.00;115.70;;;;;;;;;;5022556;28;20029;-83
2021/12/28 13:08:39;;;;;;;215.00;113.53;;;;;;;;;;5023320;28;20415;-84
2021/12/28 13:11:06;;;;;;;225.70;121.33;;;;;;;;;;5028474;28;20030;-83
2021/12/28 13:13:32;;;;;;;233.27;128.80;;;;;;;;;;5011601;28;20057;-83
2021/12/28 13:16:06;;;;;;;274.77;149.67;;;;;;;;;;5024726;28;20428;-81
2021/12/28 13:18:33;;;;;;;276.23;148.87;;;;;;;;;;5025579;28;20037;-82
2021/12/28 13:20:59;;;;;;;273.10;151.80;;;;;;;;;;5028059;28;20033;-82
2021/12/28 13:23:25;;;;;;;283.90;157.97;;;;;;;;;;5008569;28;20025;-82
2021/12/28 13:25:52;;;;;;;308.90;175.07;;;;;;;;;;5026981;28;20025;-82
2021/12/28 13:28:20;;;;;;;324.67;177.73;;;;;;;;;;5008202;28;20026;-81
2021/12/28 13:30:46;;;;;;;331.13;179.80;;;;;;;;;;5026911;28;20033;-83
2021/12/28 13:33:14;;;;;;;357.47;193.40;;;;;;;;;;5022752;28;20484;-81
2021/12/28 13:35:42;;;;;;;369.93;199.63;;;;;;;;;;5012923;28;20025;-82
2021/12/28 13:38:13;;;;;;;334.37;188.40;;;;;;;;;;5019961;28;20113;-82
2021/12/28 13:40:43;;;;;;;361.63;197.73;;;;;;;;;;5032762;28;20100;-82
2021/12/28 13:43:30;;;;;;;355.47;189.43;;;;;;;;;;5015040;28;20468;-82
2021/12/28 13:46:06;;;;;;;346.27;185.97;;;;;;;;;;5021411;28;20034;-83
2021/12/28 13:48:32;;;;;;;349.23;188.07;;;;;;;;;;5012900;28;20079;-82
2021/12/28 13:50:59;;;;;;;341.23;187.27;;;;;;;;;;5026228;28;20036;-82
2021/12/28 13:53:34;;;;;;;362.97;198.87;;;;;;;;;;5015525;28;20053;-83
2021/12/28 13:56:01;;;;;;;351.23;186.03;;;;;;;;;;5032542;28;20029;-80
2021/12/28 13:58:29;;;;;;;374.80;209.43;;;;;;;;;;5032592;28;20052;-82
2021/12/28 14:00:58;;;;;;;344.50;182.80;;;;;;;;;;5032688;28;20025;-81
2021/12/28 14:03:25;;;;;;;353.13;191.97;;;;;;;;;;5032495;28;20041;-83
2021/12/28 14:05:51;;;;;;;347.20;188.23;;;;;;;;;;5032741;28;20038;-81
2021/12/28 14:08:19;;;;;;;342.50;189.20;;;;;;;;;;5014915;28;20026;-82
2021/12/28 14:10:48;;;;;;;355.87;187.00;;;;;;;;;;5033031;28;20477;-80